Time;durP1;ratioP1;P1;durP2;ratioP2;P2;SDS_P1;SDS_P2;PMS_P1;PMS_P2;Temp;Humidity;BMP_temperature;BMP_pressure;BME280_temperature;BME280_humidity;BME280_pressure;Samples;Min_cycle;Max_cycle;Signal;HPM_P1;HPM_P2
2022/01/27 00:00:38;;;;;;;40.78;17.65;;;1.80;99.90;;;;;;4925586;29;20051;-86
2022/01/27 04:52:01;;;;;;;36.30;17.02;;;0.00;99.90;;;;;;5502470;23;20087;-78
2022/01/27 04:54:33;;;;;;;40.97;17.90;;;0.00;99.90;;;;;;4897315;29;20083;-80
2022/01/27 04:57:02;;;;;;;34.67;16.75;;;0.00;99.90;;;;;;4909684;29;20044;-79
2022/01/27 04:59:35;;;;;;;37.35;17.08;;;0.10;99.90;;;;;;4918060;29;20053;-78
2022/01/27 05:02:06;;;;;;;42.22;19.27;;;0.10;99.90;;;;;;4910572;29;20127;-79
2022/01/27 05:04:38;;;;;;;35.42;18.27;;;0.10;99.90;;;;;;4906649;29;20127;-79
2022/01/27 05:07:06;;;;;;;39.92;18.90;;;0.10;99.90;;;;;;4921876;29;20131;-77
2022/01/27 05:09:34;;;;;;;36.20;17.02;;;0.00;99.90;;;;;;4913890;29;20115;-76
2022/01/27 05:12:13;;;;;;;37.20;17.98;;;0.00;99.90;;;;;;4910740;29;20040;-77
2022/01/27 05:14:40;;;;;;;40.10;18.13;;;-0.10;99.90;;;;;;4908906;29;20051;-77
2022/01/27 05:17:07;;;;;;;39.55;18.63;;;-0.10;99.90;;;;;;4908798;29;20144;-76
2022/01/27 05:19:34;;;;;;;43.88;19.95;;;-0.10;99.90;;;;;;4911988;29;20132;-76
2022/01/27 05:22:01;;;;;;;40.88;19.67;;;-0.20;99.90;;;;;;4912989;29;20450;-79
2022/01/27 05:24:29;;;;;;;43.95;20.20;;;-0.20;99.90;;;;;;4910644;29;20503;-75
2022/01/27 05:26:56;;;;;;;45.08;20.75;;;-0.30;99.90;;;;;;4912768;29;20565;-75
2022/01/27 05:29:23;;;;;;;42.35;20.45;;;-0.30;99.90;;;;;;4911172;29;20570;-77
2022/01/27 05:31:50;;;;;;;44.28;19.73;;;-0.40;99.90;;;;;;4901011;29;20565;-75
2022/01/27 05:34:18;;;;;;;39.92;19.45;;;-0.40;99.90;;;;;;4900873;29;20387;-74
2022/01/27 05:36:45;;;;;;;40.75;18.80;;;-0.40;99.90;;;;;;4901042;29;20140;-74
2022/01/27 05:39:12;;;;;;;44.45;19.75;;;-0.40;99.90;;;;;;4901049;29;20135;-74
2022/01/27 05:41:42;;;;;;;42.55;19.10;;;-0.40;99.90;;;;;;4900580;29;20059;-74
2022/01/27 05:44:09;;;;;;;44.42;19.92;;;-0.50;99.90;;;;;;4901316;29;20057;-76
2022/01/27 05:46:36;;;;;;;46.67;19.92;;;-0.50;99.90;;;;;;4901666;29;20079;-75
2022/01/27 05:49:04;;;;;;;42.17;19.10;;;-0.50;99.90;;;;;;4901237;29;20059;-74
2022/01/27 05:51:31;;;;;;;42.67;20.42;;;-0.50;99.90;;;;;;4901080;29;20514;-76
2022/01/27 05:53:58;;;;;;;42.22;18.63;;;-0.50;99.90;;;;;;4900558;29;20083;-75
2022/01/27 05:56:25;;;;;;;44.65;20.80;;;-0.50;99.90;;;;;;4900600;29;20562;-75
2022/01/27 05:58:53;;;;;;;45.22;19.38;;;-0.40;99.90;;;;;;4899270;29;20120;-75
2022/01/27 06:01:20;;;;;;;41.10;18.92;;;-0.50;99.90;;;;;;4906967;29;20152;-75
2022/01/27 06:03:47;;;;;;;39.25;18.08;;;-0.50;99.90;;;;;;4918738;29;20139;-78
2022/01/27 06:06:14;;;;;;;40.20;18.40;;;-0.40;99.90;;;;;;4918588;29;20139;-74
2022/01/27 06:08:41;;;;;;;39.22;18.77;;;-0.40;99.90;;;;;;4918710;29;20048;-74
2022/01/27 06:11:08;;;;;;;45.85;20.45;;;-0.40;99.90;;;;;;4918877;29;20048;-76
2022/01/27 06:13:37;;;;;;;40.17;18.73;;;-0.30;99.90;;;;;;4918967;29;20142;-74
2022/01/27 06:16:10;;;;;;;43.25;19.40;;;-0.30;99.90;;;;;;4918347;29;20052;-75
2022/01/27 06:18:37;;;;;;;41.75;19.42;;;-0.30;99.90;;;;;;4918284;29;20112;-75
2022/01/27 06:21:06;;;;;;;43.40;19.40;;;-0.40;99.90;;;;;;4918179;29;20490;-75
2022/01/27 06:23:33;;;;;;;41.28;19.52;;;-0.40;99.90;;;;;;4918665;29;20055;-75
2022/01/27 06:26:01;;;;;;;40.72;19.25;;;-0.40;99.90;;;;;;4919028;29;20135;-75
2022/01/27 06:28:28;;;;;;;43.20;19.85;;;-0.40;99.90;;;;;;4917801;29;20047;-75
2022/01/27 06:30:56;;;;;;;40.20;18.75;;;-0.40;99.90;;;;;;4919217;29;20087;-74
2022/01/27 06:33:24;;;;;;;39.70;18.33;;;-0.40;99.90;;;;;;4919024;29;20048;-75
2022/01/27 06:35:51;;;;;;;44.05;19.02;;;-0.40;99.90;;;;;;4918458;29;20050;-77
2022/01/27 06:38:18;;;;;;;40.60;18.08;;;-0.40;99.90;;;;;;4918192;29;20245;-75
2022/01/27 06:40:45;;;;;;;37.30;17.17;;;-0.40;99.90;;;;;;4917385;29;20581;-75
2022/01/27 06:43:14;;;;;;;42.25;19.98;;;-0.40;99.90;;;;;;4917964;29;20495;-75
2022/01/27 06:45:41;;;;;;;41.30;18.90;;;-0.30;99.90;;;;;;4917918;29;20075;-75
2022/01/27 06:48:08;;;;;;;38.92;18.73;;;-0.30;99.90;;;;;;4918314;29;20167;-75
2022/01/27 06:50:38;;;;;;;41.47;18.75;;;-0.30;99.90;;;;;;4919626;29;20047;-75
2022/01/27 06:53:05;;;;;;;40.70;19.20;;;-0.30;99.90;;;;;;4918613;29;20536;-76
2022/01/27 06:55:33;;;;;;;39.08;18.33;;;-0.30;99.90;;;;;;4918744;29;20135;-75
2022/01/27 06:58:00;;;;;;;36.95;17.65;;;-0.30;99.90;;;;;;4919143;29;20105;-75
2022/01/27 07:00:27;;;;;;;36.53;18.00;;;-0.30;99.90;;;;;;4918800;29;20135;-76
2022/01/27 07:02:54;;;;;;;40.35;17.85;;;-0.30;99.90;;;;;;4918058;29;20555;-75
2022/01/27 07:05:21;;;;;;;38.83;18.40;;;-0.30;99.90;;;;;;4918419;29;20135;-77
2022/01/27 07:07:50;;;;;;;38.22;17.80;;;-0.20;99.90;;;;;;4918984;29;20131;-74
2022/01/27 07:10:17;;;;;;;37.97;18.25;;;-0.30;99.90;;;;;;4918029;29;20052;-75
2022/01/27 07:12:44;;;;;;;38.53;18.38;;;-0.20;99.90;;;;;;4918399;29;20135;-74
2022/01/27 07:15:12;;;;;;;38.38;18.80;;;-0.20;99.90;;;;;;4921882;29;20135;-76
2022/01/27 07:17:39;;;;;;;41.17;18.95;;;-0.10;99.90;;;;;;4921280;29;20379;-78
2022/01/27 07:20:08;;;;;;;38.17;18.35;;;-0.10;99.90;;;;;;4920393;29;20051;-76
2022/01/27 07:22:37;;;;;;;39.25;18.58;;;-0.10;99.90;;;;;;4919708;29;20240;-76
2022/01/27 07:25:08;;;;;;;44.15;20.17;;;-0.20;99.90;;;;;;4918929;29;20134;-77
2022/01/27 07:27:36;;;;;;;39.13;18.00;;;-0.20;99.90;;;;;;4918688;29;20052;-78
2022/01/27 07:30:05;;;;;;;41.13;19.20;;;-0.30;99.90;;;;;;4918693;29;20200;-78
2022/01/27 07:32:32;;;;;;;43.30;19.25;;;-0.30;99.90;;;;;;4918419;29;20468;-76
2022/01/27 07:35:01;;;;;;;37.45;17.48;;;-0.20;99.90;;;;;;4917616;29;20090;-76
2022/01/27 07:37:28;;;;;;;38.10;18.58;;;-0.20;99.90;;;;;;4917873;29;20113;-74
2022/01/27 07:39:55;;;;;;;35.97;17.20;;;-0.10;99.90;;;;;;4918196;29;20111;-77
2022/01/27 07:42:23;;;;;;;37.47;18.02;;;-0.10;99.90;;;;;;4917635;29;20102;-76
2022/01/27 07:44:51;;;;;;;36.33;18.08;;;-0.10;99.90;;;;;;4918071;29;20148;-75
2022/01/27 07:47:18;;;;;;;42.50;18.92;;;0.00;99.90;;;;;;4917598;29;20421;-75
2022/01/27 07:49:45;;;;;;;39.95;18.30;;;0.00;99.90;;;;;;4917313;29;20139;-74
2022/01/27 07:52:12;;;;;;;37.67;17.52;;;0.10;99.90;;;;;;4917262;29;20087;-75
2022/01/27 07:54:39;;;;;;;40.10;19.30;;;0.10;99.90;;;;;;4918720;29;20048;-78
2022/01/27 07:57:06;;;;;;;37.65;18.15;;;0.10;99.90;;;;;;4918388;29;20131;-77
2022/01/27 07:59:35;;;;;;;37.55;18.48;;;0.20;99.90;;;;;;4919340;29;20053;-75
2022/01/27 08:02:02;;;;;;;35.45;17.30;;;0.20;99.90;;;;;;4920769;29;20139;-75
2022/01/27 08:04:29;;;;;;;37.58;18.00;;;0.20;99.90;;;;;;4919944;29;20081;-76
2022/01/27 08:06:57;;;;;;;38.67;18.33;;;0.20;99.90;;;;;;4918842;29;20131;-74
2022/01/27 08:09:24;;;;;;;35.60;17.88;;;0.30;99.90;;;;;;4918972;29;20071;-76
2022/01/27 08:11:51;;;;;;;38.30;18.05;;;0.30;99.90;;;;;;4918187;29;20058;-76
2022/01/27 08:14:18;;;;;;;37.85;18.50;;;0.30;99.90;;;;;;4918554;29;20134;-79
2022/01/27 08:16:47;;;;;;;38.10;18.13;;;0.40;99.90;;;;;;4918874;29;20135;-76
2022/01/27 08:19:14;;;;;;;38.20;18.30;;;0.40;99.90;;;;;;4917905;29;20144;-75
2022/01/27 08:21:41;;;;;;;37.22;19.13;;;0.40;99.90;;;;;;4918831;29;20486;-75
2022/01/27 08:24:08;;;;;;;35.58;17.27;;;0.40;99.90;;;;;;4921621;29;20051;-76
2022/01/27 08:26:39;;;;;;;38.78;18.67;;;0.40;99.90;;;;;;4920906;29;20083;-75
2022/01/27 08:29:15;;;;;;;35.95;17.52;;;0.40;99.90;;;;;;4920774;29;20052;-75
2022/01/27 08:31:57;;;;;;;36.20;17.77;;;0.50;99.90;;;;;;4920605;29;20051;-75
2022/01/27 08:34:31;;;;;;;38.72;17.83;;;0.50;99.90;;;;;;4920970;29;20044;-75
2022/01/27 08:37:00;;;;;;;35.05;16.58;;;0.50;99.90;;;;;;4920596;29;20067;-75
2022/01/27 08:39:27;;;;;;;37.95;18.45;;;0.50;99.90;;;;;;4921692;29;20115;-75
2022/01/27 08:41:55;;;;;;;38.72;18.40;;;0.50;99.90;;;;;;4920542;29;20127;-75
2022/01/27 08:44:22;;;;;;;37.67;18.10;;;0.50;99.90;;;;;;4920382;29;20048;-75
2022/01/27 08:46:49;;;;;;;37.90;18.17;;;0.50;99.90;;;;;;4920705;29;20047;-75
2022/01/27 08:49:19;;;;;;;36.08;16.85;;;0.50;99.90;;;;;;4920558;29;20052;-74
2022/01/27 08:51:48;;;;;;;37.35;17.63;;;0.60;99.90;;;;;;4920243;29;20059;-75
2022/01/27 08:54:15;;;;;;;36.70;17.13;;;0.60;99.90;;;;;;4920206;29;20131;-76
2022/01/27 08:56:43;;;;;;;38.08;17.85;;;0.60;99.90;;;;;;4920669;29;20107;-76
2022/01/27 08:59:10;;;;;;;35.13;16.70;;;0.60;99.90;;;;;;4920305;29;20056;-75
2022/01/27 09:01:38;;;;;;;36.88;17.58;;;0.70;99.90;;;;;;4920291;29;20127;-75
2022/01/27 09:04:05;;;;;;;42.25;18.80;;;0.70;99.90;;;;;;4903125;29;20478;-75
2022/01/27 09:06:33;;;;;;;39.55;18.30;;;0.70;99.90;;;;;;4903798;29;20116;-77
2022/01/27 09:09:01;;;;;;;38.45;17.30;;;0.70;99.90;;;;;;4903654;29;20144;-76
2022/01/27 09:11:30;;;;;;;35.63;16.08;;;0.70;99.90;;;;;;4902610;29;20569;-76
2022/01/27 09:13:58;;;;;;;38.38;17.50;;;0.70;99.90;;;;;;4902292;29;20052;-77
2022/01/27 09:16:27;;;;;;;37.45;17.17;;;0.70;99.90;;;;;;4901616;29;20139;-76
2022/01/27 09:18:54;;;;;;;37.17;16.90;;;0.70;99.90;;;;;;4900570;29;20542;-75
2022/01/27 09:21:25;;;;;;;37.47;16.58;;;0.70;99.90;;;;;;4902165;29;20044;-75
2022/01/27 09:23:53;;;;;;;36.75;17.05;;;0.80;99.90;;;;;;4901425;29;20567;-76
2022/01/27 09:26:40;;;;;;;38.38;17.80;;;0.70;99.90;;;;;;4902425;29;20048;-76
2022/01/27 09:29:08;;;;;;;35.53;18.35;;;0.70;99.90;;;;;;4901750;29;20045;-75
2022/01/27 09:31:35;;;;;;;37.20;17.23;;;0.60;99.90;;;;;;4901905;29;20053;-75
2022/01/27 09:34:03;;;;;;;39.38;19.00;;;0.50;99.90;;;;;;4900249;29;20405;-75
2022/01/27 09:36:30;;;;;;;35.20;16.90;;;0.50;99.90;;;;;;4901078;29;20470;-75
2022/01/27 09:38:57;;;;;;;36.45;17.40;;;0.50;99.90;;;;;;4901396;29;20048;-76
2022/01/27 09:41:27;;;;;;;36.78;17.77;;;0.40;99.90;;;;;;4900746;29;20051;-75
2022/01/27 09:43:55;;;;;;;36.42;17.02;;;0.40;99.90;;;;;;4900488;29;20049;-74
2022/01/27 09:46:24;;;;;;;32.88;15.15;;;0.40;99.90;;;;;;4900629;29;20048;-75
2022/01/27 09:48:52;;;;;;;37.33;17.60;;;0.50;99.90;;;;;;4900771;29;20056;-76
2022/01/27 09:51:39;;;;;;;38.10;17.00;;;0.50;99.90;;;;;;4900481;29;20049;-75
2022/01/27 09:54:07;;;;;;;34.13;16.55;;;0.60;99.90;;;;;;4900307;29;20092;-76
2022/01/27 09:56:36;;;;;;;37.65;17.40;;;0.70;99.90;;;;;;4899585;29;20447;-75
2022/01/27 09:59:04;;;;;;;35.33;16.55;;;0.70;99.90;;;;;;4899354;29;20135;-74
2022/01/27 10:01:31;;;;;;;37.45;16.13;;;0.80;99.90;;;;;;4899259;29;20132;-76
2022/01/27 10:04:01;;;;;;;33.92;15.45;;;0.90;99.90;;;;;;4899962;29;20060;-76
2022/01/27 10:06:31;;;;;;;35.30;16.50;;;1.00;99.90;;;;;;4899550;29;20063;-75
2022/01/27 10:09:16;;;;;;;31.42;15.82;;;1.00;99.90;;;;;;4899926;29;20064;-76
2022/01/27 10:11:48;;;;;;;34.47;16.50;;;1.10;99.90;;;;;;4900355;29;20048;-75
2022/01/27 10:14:24;;;;;;;35.35;17.45;;;1.10;99.90;;;;;;4899801;29;20048;-75
2022/01/27 10:16:54;;;;;;;36.45;16.25;;;1.10;99.90;;;;;;4900745;29;20091;-75
2022/01/27 10:19:22;;;;;;;33.42;16.48;;;1.10;99.90;;;;;;4900825;29;20063;-75
2022/01/27 10:21:51;;;;;;;34.65;16.17;;;1.20;99.90;;;;;;4899399;29;20052;-76
2022/01/27 10:24:25;;;;;;;36.22;16.25;;;1.20;99.90;;;;;;4899167;29;20144;-76
2022/01/27 10:27:22;;;;;;;35.17;16.07;;;1.30;99.90;;;;;;4899186;29;20565;-76
2022/01/27 10:30:35;;;;;;;38.50;17.60;;;1.30;99.90;;;;;;4899377;29;20057;-75
2022/01/27 10:32:51;;;;;;;33.63;15.48;;;1.40;99.90;;;;;;4899319;29;20390;-74
2022/01/27 10:35:22;;;;;;;28.45;14.50;;;1.40;99.90;;;;;;4899314;29;20473;-74
2022/01/27 10:38:02;;;;;;;33.92;16.42;;;1.40;99.90;;;;;;4899328;29;20413;-75
2022/01/27 10:40:32;;;;;;;34.83;16.40;;;1.40;99.90;;;;;;4899186;29;20140;-75
2022/01/27 10:43:09;;;;;;;31.73;15.45;;;1.50;99.90;;;;;;4899286;29;20084;-76
2022/01/27 10:45:41;;;;;;;33.33;16.38;;;1.50;99.90;;;;;;4898358;29;20136;-75
2022/01/27 10:48:19;;;;;;;32.85;15.25;;;1.40;99.90;;;;;;4898747;29;20499;-75
2022/01/27 10:50:59;;;;;;;33.40;15.95;;;1.50;99.90;;;;;;4899177;29;20056;-76
2022/01/27 10:53:54;;;;;;;34.33;16.15;;;1.50;99.90;;;;;;4899900;29;20060;-76
2022/01/27 10:56:26;;;;;;;29.27;14.02;;;1.50;99.90;;;;;;4899636;29;20463;-77
2022/01/27 10:58:57;;;;;;;31.45;14.57;;;1.50;99.80;;;;;;4901405;29;20135;-76
2022/01/27 11:01:28;;;;;;;32.30;14.75;;;1.50;99.90;;;;;;4899599;29;20124;-75
2022/01/27 11:03:59;;;;;;;33.92;14.80;;;1.50;99.80;;;;;;4899195;29;20135;-76
2022/01/27 11:06:28;;;;;;;29.02;14.52;;;1.50;99.60;;;;;;4899214;29;20139;-75
2022/01/27 11:08:58;;;;;;;30.38;14.18;;;1.40;99.40;;;;;;4899492;29;20049;-75
2022/01/27 11:11:27;;;;;;;30.40;13.98;;;1.40;99.60;;;;;;4899161;29;20052;-75
2022/01/27 11:13:59;;;;;;;29.73;14.40;;;1.40;99.70;;;;;;4898649;29;20057;-75
2022/01/27 11:16:33;;;;;;;27.60;14.02;;;1.40;99.90;;;;;;4898789;29;20067;-76
2022/01/27 11:19:14;;;;;;;30.27;14.60;;;1.50;99.60;;;;;;4898597;29;20053;-75
2022/01/27 11:21:44;;;;;;;30.63;14.40;;;1.60;99.90;;;;;;4898225;29;20510;-75
2022/01/27 11:24:23;;;;;;;30.90;15.40;;;1.70;99.30;;;;;;4898421;29;20056;-75
2022/01/27 11:26:55;;;;;;;27.75;13.82;;;1.80;98.90;;;;;;4899053;29;20406;-74
2022/01/27 11:29:26;;;;;;;31.80;15.55;;;1.80;98.70;;;;;;4898862;29;20581;-75
2022/01/27 11:32:11;;;;;;;29.40;14.82;;;1.80;98.50;;;;;;4899069;29;20451;-78
2022/01/27 11:34:50;;;;;;;29.73;14.68;;;1.80;98.60;;;;;;4898488;29;20057;-75
2022/01/27 11:37:30;;;;;;;30.15;14.43;;;1.90;98.70;;;;;;4898240;29;20155;-76
2022/01/27 11:40:03;;;;;;;29.30;14.40;;;2.00;99.00;;;;;;4898025;29;20490;-76
2022/01/27 11:42:45;;;;;;;31.13;14.77;;;2.00;98.60;;;;;;4880968;29;20057;-75
2022/01/27 11:45:33;;;;;;;29.70;14.30;;;2.10;98.50;;;;;;4897842;29;20108;-75
2022/01/27 11:48:07;;;;;;;28.45;13.95;;;2.20;98.90;;;;;;4897860;29;20049;-75
2022/01/27 11:50:51;;;;;;;28.27;13.75;;;2.20;98.50;;;;;;4897991;29;20056;-77
2022/01/27 11:53:37;;;;;;;32.37;14.03;;;2.30;98.20;;;;;;4897588;29;20084;-77
2022/01/27 11:56:06;;;;;;;28.23;13.60;;;2.30;98.10;;;;;;4898034;29;20052;-76
2022/01/27 11:58:45;;;;;;;26.73;13.10;;;2.30;97.90;;;;;;4901065;29;20076;-76
2022/01/27 12:01:18;;;;;;;25.38;12.32;;;2.40;97.70;;;;;;4901380;29;20139;-76
2022/01/27 12:04:16;;;;;;;24.17;12.32;;;2.40;97.70;;;;;;4901320;29;20135;-78
2022/01/27 12:07:08;;;;;;;24.77;12.63;;;2.50;97.70;;;;;;4901382;29;20052;-76
2022/01/27 12:09:38;;;;;;;25.67;12.32;;;2.50;97.50;;;;;;4901059;29;20515;-76
2022/01/27 12:12:13;;;;;;;24.42;11.65;;;2.40;97.10;;;;;;4901062;29;20143;-76
2022/01/27 12:15:06;;;;;;;24.08;11.05;;;2.50;97.30;;;;;;4900994;29;20048;-76
2022/01/27 12:17:35;;;;;;;23.50;10.98;;;2.50;97.20;;;;;;4898613;29;20070;-75
2022/01/27 12:20:08;;;;;;;24.33;10.40;;;2.50;97.10;;;;;;4901114;29;20049;-74
2022/01/27 12:23:02;;;;;;;24.58;11.60;;;2.60;97.00;;;;;;4900808;29;20566;-75
2022/01/27 12:25:50;;;;;;;22.13;11.15;;;2.60;97.10;;;;;;4901005;29;20090;-76
2022/01/27 12:28:18;;;;;;;26.10;11.90;;;2.60;96.90;;;;;;4900771;29;20051;-75
2022/01/27 12:30:59;;;;;;;25.05;11.27;;;2.70;97.00;;;;;;4900630;29;20048;-75
2022/01/27 12:33:27;;;;;;;23.50;12.00;;;2.70;97.10;;;;;;4900583;29;20045;-81
2022/01/27 12:35:56;;;;;;;23.23;11.32;;;2.70;97.20;;;;;;4900673;29;20065;-76
2022/01/27 12:38:23;;;;;;;22.58;10.88;;;2.80;97.60;;;;;;4900633;29;20049;-74
2022/01/27 12:40:57;;;;;;;21.70;10.38;;;2.90;97.30;;;;;;4901771;29;20059;-76
2022/01/27 12:43:24;;;;;;;22.88;10.85;;;3.00;97.50;;;;;;4902619;29;20060;-76
2022/01/27 12:45:52;;;;;;;21.73;10.50;;;3.10;97.20;;;;;;4902222;29;20072;-75
2022/01/27 12:48:23;;;;;;;24.75;11.00;;;3.20;97.20;;;;;;4900732;29;20126;-78
2022/01/27 12:51:02;;;;;;;23.67;10.40;;;3.20;97.10;;;;;;4900298;29;20482;-74
2022/01/27 12:53:31;;;;;;;22.40;10.35;;;3.30;97.20;;;;;;4900066;29;20518;-77
2022/01/27 12:56:00;;;;;;;24.35;11.00;;;3.40;97.20;;;;;;4900157;29;20049;-77
2022/01/27 12:58:32;;;;;;;23.08;10.10;;;3.40;97.20;;;;;;4900142;29;20049;-76
2022/01/27 13:01:01;;;;;;;21.48;9.63;;;3.50;97.20;;;;;;4899875;29;20422;-74
2022/01/27 13:03:28;;;;;;;21.58;10.02;;;3.50;97.40;;;;;;4899690;29;20045;-77
2022/01/27 13:06:00;;;;;;;19.90;9.48;;;3.60;97.40;;;;;;4899894;29;20056;-77
2022/01/27 13:08:30;;;;;;;19.10;9.30;;;3.60;97.40;;;;;;4899690;29;20513;-76
2022/01/27 13:11:07;;;;;;;18.63;8.85;;;3.60;97.90;;;;;;4899783;29;20059;-75
2022/01/27 13:13:37;;;;;;;20.63;9.50;;;3.60;97.70;;;;;;4900135;29;20131;-75
2022/01/27 13:16:09;;;;;;;18.45;8.98;;;3.70;97.40;;;;;;4899539;29;20052;-77
2022/01/27 13:18:43;;;;;;;19.30;9.70;;;3.70;97.60;;;;;;4899752;29;20121;-75
2022/01/27 13:21:22;;;;;;;21.77;9.68;;;3.80;97.50;;;;;;4899501;29;20205;-74
2022/01/27 13:24:02;;;;;;;19.90;9.75;;;3.80;97.50;;;;;;4904944;29;20139;-75
2022/01/27 13:26:29;;;;;;;20.58;8.95;;;3.90;97.40;;;;;;4912250;29;20131;-74
2022/01/27 13:28:58;;;;;;;18.65;8.70;;;3.90;97.60;;;;;;4912738;29;20135;-74
2022/01/27 13:31:27;;;;;;;16.45;8.15;;;3.80;97.80;;;;;;4918184;29;20112;-75
2022/01/27 13:33:55;;;;;;;16.55;7.82;;;3.80;98.00;;;;;;4918130;29;20514;-75
2022/01/27 13:36:25;;;;;;;12.90;7.00;;;3.90;98.20;;;;;;4902098;29;20080;-75
2022/01/27 13:39:03;;;;;;;15.57;7.80;;;3.90;98.30;;;;;;4908765;29;20059;-76
2022/01/27 13:41:32;;;;;;;15.15;7.80;;;4.00;98.30;;;;;;4899701;29;20096;-74
2022/01/27 13:44:06;;;;;;;17.88;7.82;;;4.10;98.30;;;;;;4899237;29;20048;-76
2022/01/27 13:46:37;;;;;;;15.23;7.10;;;4.10;98.30;;;;;;4899772;29;20492;-76
2022/01/27 13:49:09;;;;;;;15.18;7.43;;;4.20;98.20;;;;;;4899748;29;20102;-76
2022/01/27 13:51:51;;;;;;;16.75;7.80;;;4.30;98.20;;;;;;4899175;29;20160;-78
2022/01/27 13:54:19;;;;;;;14.10;7.25;;;4.30;98.20;;;;;;4907075;29;20047;-75
2022/01/27 13:56:49;;;;;;;13.85;6.93;;;4.40;98.30;;;;;;4917874;29;20056;-75
2022/01/27 13:59:20;;;;;;;14.40;7.10;;;4.40;98.00;;;;;;4918456;29;20172;-77
2022/01/27 14:01:48;;;;;;;21.33;10.00;;;4.60;98.40;;;;;;4899426;29;20049;-75
2022/01/27 14:04:16;;;;;;;21.10;9.98;;;4.80;98.00;;;;;;4899275;29;20135;-75
2022/01/27 14:06:54;;;;;;;18.20;9.40;;;5.00;97.80;;;;;;4898925;29;20383;-76
2022/01/27 14:09:24;;;;;;;13.52;6.43;;;6.30;98.00;;;;;;4898840;29;20056;-75
2022/01/27 14:11:57;;;;;;;12.25;6.47;;;8.70;94.60;;;;;;4902404;29;20052;-76
2022/01/27 14:14:47;;;;;;;13.68;7.13;;;11.50;83.30;;;;;;4917994;29;20168;-77
2022/01/27 14:17:26;;;;;;;12.35;6.85;;;13.30;70.10;;;;;;4917993;29;20139;-76
2022/01/27 14:19:56;;;;;;;14.30;7.80;;;15.10;60.00;;;;;;4911443;29;20142;-77
2022/01/27 14:22:29;;;;;;;13.30;7.28;;;15.00;55.10;;;;;;4898323;29;20441;-75
2022/01/27 14:25:03;;;;;;;11.82;6.78;;;14.00;55.30;;;;;;4913967;29;20044;-78
2022/01/27 14:27:40;;;;;;;12.40;6.88;;;13.30;57.30;;;;;;4898830;29;20147;-76
2022/01/27 14:30:13;;;;;;;11.57;6.95;;;14.20;57.90;;;;;;4910882;29;20059;-78
2022/01/27 14:32:41;;;;;;;10.30;6.05;;;;;;;;;;4918198;29;20133;-78
2022/01/27 14:35:10;;;;;;;11.48;6.68;;;17.10;52.00;;;;;;4917355;29;20138;-77
2022/01/27 14:37:40;;;;;;;10.00;5.82;;;17.10;48.50;;;;;;4911222;29;20516;-77
2022/01/27 14:40:12;;;;;;;10.57;6.53;;;16.40;70.00;;;;;;4913287;29;20048;-76
2022/01/27 14:42:40;;;;;;;11.82;7.22;;;15.50;71.60;;;;;;4915321;29;20494;-77
2022/01/27 14:45:08;;;;;;;11.63;6.70;;;14.00;52.00;;;;;;4899116;29;20080;-77
2022/01/27 14:47:42;;;;;;;12.23;6.70;;;12.70;54.50;;;;;;4898226;29;20052;-76
2022/01/27 14:50:10;;;;;;;11.88;6.80;;;11.60;57.20;;;;;;4898922;29;20136;-74
2022/01/27 14:52:42;;;;;;;12.30;7.07;;;10.60;60.30;;;;;;4898213;29;20499;-78
2022/01/27 14:55:10;;;;;;;14.70;7.38;;;9.80;63.00;;;;;;4903075;29;20050;-74
2022/01/27 14:57:37;;;;;;;15.40;7.53;;;9.10;65.70;;;;;;4917117;29;20059;-78
2022/01/27 15:00:05;;;;;;;13.38;7.45;;;8.50;68.90;;;;;;4917166;29;20059;-77
2022/01/27 15:02:32;;;;;;;12.55;6.85;;;8.00;72.80;;;;;;4917072;29;20454;-78
2022/01/27 15:04:59;;;;;;;12.57;6.47;;;7.60;78.10;;;;;;4916980;29;20131;-75
2022/01/27 15:07:26;;;;;;;15.55;8.00;;;7.20;83.60;;;;;;4917073;29;20058;-75
2022/01/27 15:09:55;;;;;;;18.00;9.10;;;6.90;87.20;;;;;;4916909;29;20054;-75
2022/01/27 15:12:22;;;;;;;19.63;9.75;;;6.60;90.20;;;;;;4917172;29;20056;-76
2022/01/27 15:20:18;;;;;;;;;;;6.00;93.50;;;;;;4917761;29;20059;-76
2022/01/27 15:22:45;;;;;;;15.75;7.15;;;5.70;94.20;;;;;;4917320;29;19923;-75
2022/01/27 15:25:15;;;;;;;14.27;7.30;;;5.60;95.10;;;;;;4915526;29;20894;-77
2022/01/27 15:27:42;;;;;;;15.30;7.43;;;5.50;95.20;;;;;;4908424;29;20083;-75
2022/01/27 15:30:10;;;;;;;14.18;7.30;;;5.30;95.90;;;;;;4905878;29;20046;-76
2022/01/27 15:32:37;;;;;;;13.15;7.07;;;5.20;96.30;;;;;;4910140;29;20057;-76
2022/01/27 15:35:11;;;;;;;13.77;6.93;;;5.20;96.80;;;;;;4906378;29;20562;-77
2022/01/27 15:37:38;;;;;;;14.32;7.13;;;5.10;97.20;;;;;;4913984;29;20759;-78
2022/01/27 15:40:10;;;;;;;14.95;7.32;;;5.00;97.50;;;;;;4914631;29;20051;-75
2022/01/27 15:42:39;;;;;;;13.95;7.18;;;4.90;97.90;;;;;;4913504;29;20056;-74
2022/01/27 15:45:08;;;;;;;14.73;7.30;;;4.90;98.20;;;;;;4910663;29;20050;-75
2022/01/27 15:47:35;;;;;;;14.45;7.57;;;4.80;98.40;;;;;;4919346;29;20103;-77
2022/01/27 15:50:02;;;;;;;15.88;8.07;;;4.80;98.60;;;;;;4919227;29;20463;-79
2022/01/27 15:52:32;;;;;;;17.38;7.85;;;4.70;99.20;;;;;;4918422;29;20135;-79
2022/01/27 15:54:59;;;;;;;14.82;8.30;;;4.70;99.20;;;;;;4917932;29;20047;-76
2022/01/27 15:57:26;;;;;;;15.75;7.70;;;4.60;99.40;;;;;;4918744;29;20048;-76
2022/01/27 15:59:54;;;;;;;14.57;8.00;;;4.60;99.60;;;;;;4912041;29;20135;-76
2022/01/27 16:02:22;;;;;;;17.45;8.90;;;4.60;99.80;;;;;;4913506;29;20063;-76
2022/01/27 16:04:49;;;;;;;15.52;8.25;;;4.50;99.90;;;;;;4912052;29;20048;-78
2022/01/27 16:07:16;;;;;;;16.02;8.57;;;4.50;99.90;;;;;;4909361;29;20056;-76
2022/01/27 16:09:44;;;;;;;16.02;8.68;;;4.50;99.90;;;;;;4908293;29;20049;-77
2022/01/27 16:12:12;;;;;;;15.88;8.32;;;4.50;99.90;;;;;;4909251;29;20127;-77
2022/01/27 16:14:39;;;;;;;17.42;8.40;;;4.50;99.90;;;;;;4911098;29;20123;-77
2022/01/27 16:17:07;;;;;;;17.35;8.25;;;4.50;99.90;;;;;;4911110;29;20135;-78
2022/01/27 16:19:34;;;;;;;17.55;8.48;;;4.50;99.90;;;;;;4907900;29;20079;-75
2022/01/27 16:22:02;;;;;;;16.92;9.00;;;4.50;99.90;;;;;;4904368;29;20127;-77
2022/01/27 16:24:29;;;;;;;17.08;8.90;;;4.40;99.90;;;;;;4910708;29;20419;-78
2022/01/27 16:26:56;;;;;;;17.42;9.38;;;4.40;99.90;;;;;;4916528;29;20048;-76
2022/01/27 16:29:23;;;;;;;19.02;9.90;;;4.30;99.90;;;;;;4910784;29;20048;-76
2022/01/27 16:31:50;;;;;;;21.15;9.75;;;4.30;99.90;;;;;;4915030;29;20050;-76
2022/01/27 16:34:19;;;;;;;20.50;9.75;;;4.30;99.90;;;;;;4915640;29;20135;-73
2022/01/27 16:36:47;;;;;;;18.00;9.35;;;4.30;99.90;;;;;;4917641;29;20127;-75
2022/01/27 16:39:15;;;;;;;18.63;9.32;;;4.30;99.90;;;;;;4914690;29;20059;-76
2022/01/27 16:41:43;;;;;;;21.08;9.75;;;4.20;99.90;;;;;;4918664;29;20067;-75
2022/01/27 16:44:11;;;;;;;17.33;9.10;;;4.20;99.90;;;;;;4918981;29;20048;-74
2022/01/27 16:46:39;;;;;;;18.08;10.07;;;4.20;99.90;;;;;;4918825;29;20130;-76
2022/01/27 16:49:06;;;;;;;19.38;9.32;;;4.20;99.90;;;;;;4919098;29;20123;-75
2022/01/27 16:51:37;;;;;;;18.83;9.68;;;4.10;99.90;;;;;;4918650;29;20068;-78
2022/01/27 16:54:05;;;;;;;18.15;8.93;;;4.30;99.90;;;;;;4919002;29;20505;-76
2022/01/27 16:56:35;;;;;;;20.30;9.90;;;4.20;99.90;;;;;;4917335;29;20051;-75
2022/01/27 16:59:02;;;;;;;18.13;8.63;;;4.70;99.90;;;;;;4901237;29;20099;-75
2022/01/27 17:01:29;;;;;;;17.92;9.38;;;4.30;99.90;;;;;;4918757;29;20052;-75
2022/01/27 17:03:57;;;;;;;18.13;9.30;;;4.20;99.90;;;;;;4918878;29;20131;-76
2022/01/27 17:06:26;;;;;;;18.33;9.25;;;4.20;99.90;;;;;;4918374;29;20044;-75
2022/01/27 17:08:55;;;;;;;18.58;8.98;;;4.20;99.90;;;;;;4918575;29;20052;-75
2022/01/27 17:11:22;;;;;;;18.45;9.57;;;4.20;99.90;;;;;;4918211;29;20048;-76
2022/01/27 17:13:50;;;;;;;18.67;9.50;;;4.00;99.90;;;;;;4908265;29;20140;-77
2022/01/27 17:16:19;;;;;;;20.73;9.77;;;4.10;99.90;;;;;;4908958;29;20055;-75
2022/01/27 17:18:48;;;;;;;17.13;8.57;;;4.20;99.90;;;;;;4910224;29;20052;-75
2022/01/27 17:21:15;;;;;;;17.65;8.98;;;4.20;99.90;;;;;;4908093;29;20055;-75
2022/01/27 17:23:44;;;;;;;16.15;8.57;;;4.20;99.90;;;;;;4906470;29;20131;-75
2022/01/27 17:26:14;;;;;;;17.55;8.65;;;4.20;99.90;;;;;;4914249;29;20496;-77
2022/01/27 17:28:43;;;;;;;17.35;8.02;;;4.20;99.90;;;;;;4918130;29;20044;-77
2022/01/27 17:31:11;;;;;;;16.88;8.57;;;4.20;99.90;;;;;;4916503;29;20466;-78
2022/01/27 17:33:38;;;;;;;18.33;8.82;;;4.30;99.90;;;;;;4922389;29;20452;-75
2022/01/27 17:36:06;;;;;;;16.25;8.27;;;4.20;99.90;;;;;;4915962;29;20123;-76
2022/01/27 17:38:34;;;;;;;16.23;7.53;;;4.30;99.90;;;;;;4914713;29;20084;-77
2022/01/27 17:41:02;;;;;;;15.98;8.05;;;4.30;99.90;;;;;;4914358;29;20127;-75
2022/01/27 17:43:41;;;;;;;16.23;8.27;;;4.30;99.90;;;;;;4918605;29;20050;-77
2022/01/27 17:46:09;;;;;;;15.57;7.65;;;4.40;99.90;;;;;;4917357;29;20044;-76
2022/01/27 17:48:36;;;;;;;13.63;7.68;;;4.30;99.90;;;;;;4917153;29;20044;-76